DYNAMO UKFF-UKFF
Flight info
| Callsign | DYNAMO |
|---|---|
| Flight time | 0h 8m |
| Altitude | 5000 |
| Route | DCT |
| Aircraft | L29/L-VGD/A |
Departure
| Time | 2026-04-21 19:35 |
|---|---|
| Airport | Simferopol International Airport (UKFF) |
Arrival
| Time | 2026-04-21 19:44 |
|---|---|
| Airport | Simferopol International Airport (UKFF) |
| Time | Latitude | Longitude | Altitude | Speed | Heading |
|---|---|---|---|---|---|
| 2026-04-21 19:32 | 45.03462 | 33.98568 | 614 ft | 0 kts | 261° |
| 2026-04-21 19:32 | 45.03518 | 33.97101 | 596 ft | 0 kts | 23° |
| 2026-04-21 19:32 | 45.03924 | 33.97237 | 596 ft | 2 kts | 15° |
| 2026-04-21 19:32 | 45.03944 | 33.97243 | 596 ft | 3 kts | 25° |
| 2026-04-21 19:33 | 45.03957 | 33.97254 | 596 ft | 0 kts | 5° |
| 2026-04-21 19:33 | 45.06203 | 33.97941 | 581 ft | 0 kts | 13° |
| 2026-04-21 19:33 | 45.06198 | 33.97920 | 581 ft | 10 kts | 298° |
| 2026-04-21 19:33 | 45.06239 | 33.97755 | 578 ft | 20 kts | 279° |
| 2026-04-21 19:34 | 45.06204 | 33.97651 | 577 ft | 0 kts | 201° |
| 2026-04-21 19:34 | 45.06107 | 33.97620 | 577 ft | 43 kts | 190° |
| 2026-04-21 19:34 | 45.05612 | 33.97461 | 581 ft | 101 kts | 193° |
| 2026-04-21 19:34 | 45.04844 | 33.97456 | 751 ft | 123 kts | 144° |
| 2026-04-21 19:35 | 45.04716 | 33.98628 | 974 ft | 151 kts | 58° |
| 2026-04-21 19:35 | 45.06611 | 33.99059 | 1620 ft | 187 kts | 245° |
| 2026-04-21 19:35 | 45.05917 | 33.99641 | 1710 ft | 198 kts | 62° |
| 2026-04-21 19:36 | 45.07207 | 34.00652 | 1512 ft | 240 kts | 24° |
| 2026-04-21 19:36 | 45.08792 | 34.01637 | 1997 ft | 255 kts | 23° |
| 2026-04-21 19:36 | 45.10522 | 34.02498 | 2295 ft | 274 kts | 16° |
| 2026-04-21 19:36 | 45.12400 | 34.03198 | 2817 ft | 281 kts | 13° |
| 2026-04-21 19:37 | 45.14311 | 34.03783 | 3395 ft | 284 kts | 11° |
| 2026-04-21 19:37 | 45.16295 | 34.04285 | 3692 ft | 294 kts | 4° |
| 2026-04-21 19:37 | 45.17938 | 34.04445 | 4838 ft | 213 kts | 352° |
| 2026-04-21 19:37 | 45.19294 | 34.03790 | 4373 ft | 210 kts | 300° |
| 2026-04-21 19:38 | 45.18758 | 34.02223 | 3241 ft | 203 kts | 208° |
| 2026-04-21 19:38 | 45.17459 | 34.01611 | 2835 ft | 188 kts | 193° |
| 2026-04-21 19:38 | 45.16304 | 34.01224 | 2917 ft | 166 kts | 194° |
| 2026-04-21 19:38 | 45.15160 | 34.00747 | 2607 ft | 176 kts | 196° |
| 2026-04-21 19:39 | 45.13938 | 34.00230 | 2326 ft | 188 kts | 197° |
| 2026-04-21 19:39 | 45.12709 | 33.99726 | 1924 ft | 183 kts | 188° |
| 2026-04-21 19:39 | 45.11387 | 33.99379 | 1573 ft | 206 kts | 193° |
| 2026-04-21 19:39 | 45.10005 | 33.98915 | 1338 ft | 200 kts | 192° |
| 2026-04-21 19:40 | 45.08704 | 33.98542 | 1134 ft | 170 kts | 191° |
| 2026-04-21 19:40 | 45.07633 | 33.98157 | 793 ft | 153 kts | 194° |
| 2026-04-21 19:40 | 45.06646 | 33.97845 | 635 ft | 144 kts | 194° |
| 2026-04-21 19:40 | 45.05669 | 33.97501 | 599 ft | 141 kts | 193° |
| 2026-04-21 19:41 | 45.04758 | 33.97161 | 600 ft | 132 kts | 194° |
| 2026-04-21 19:41 | 45.03730 | 33.96910 | 749 ft | 168 kts | 180° |
| 2026-04-21 19:41 | 45.02663 | 33.97716 | 1135 ft | 193 kts | 116° |
| 2026-04-21 19:41 | 45.03205 | 33.99176 | 1549 ft | 208 kts | 9° |
| 2026-04-21 19:42 | 45.04788 | 33.99421 | 1619 ft | 248 kts | 5° |
| 2026-04-21 19:42 | 45.06579 | 33.99714 | 1648 ft | 254 kts | 7° |
| 2026-04-21 19:42 | 45.08140 | 34.00010 | 1992 ft | 204 kts | 9° |
| 2026-04-21 19:42 | 45.09277 | 33.99379 | 1661 ft | 168 kts | 298° |
| 2026-04-21 19:43 | 45.09140 | 33.98133 | 1703 ft | 122 kts | 188° |
| 2026-04-21 19:43 | 45.08329 | 33.98237 | 1319 ft | 120 kts | 177° |
| 2026-04-21 19:43 | 45.07496 | 33.98082 | 832 ft | 120 kts | 193° |
| 2026-04-21 19:43 | 45.06708 | 33.97828 | 578 ft | 107 kts | 192° |
| 2026-04-21 19:44 | 45.06096 | 33.97628 | 578 ft | 75 kts | 193° |
| 2026-04-21 19:44 | 45.05682 | 33.97486 | 578 ft | 48 kts | 193° |
| 2026-04-21 19:44 | 45.05447 | 33.97431 | 580 ft | 2 kts | 177° |
| 2026-04-21 19:44 | 45.05446 | 33.97431 | 580 ft | 0 kts | 179° |
| 2026-04-21 19:45 | 45.05445 | 33.97432 | 580 ft | 0 kts | 154° |
| 2026-04-21 19:45 | 45.05444 | 33.97434 | 580 ft | 0 kts | 129° |
| 2026-04-21 19:45 | 45.05442 | 33.97437 | 580 ft | 0 kts | 134° |
| 2026-04-21 19:45 | 45.05440 | 33.97440 | 580 ft | 0 kts | 133° |
| 2026-04-21 19:46 | 45.05439 | 33.97442 | 580 ft | 0 kts | 136° |
| 2026-04-21 19:46 | 45.05438 | 33.97443 | 580 ft | 0 kts | 137° |
| 2026-04-21 19:47 | 45.05437 | 33.97444 | 580 ft | 1 kts | 128° |
| 2026-04-21 19:47 | 45.05497 | 33.97490 | 581 ft | 11 kts | 331° |
| 2026-04-21 19:47 | 45.05435 | 33.97407 | 580 ft | 36 kts | 200° |
| 2026-04-21 19:47 | 45.04977 | 33.97271 | 585 ft | 93 kts | 192° |
| 2026-04-21 19:48 | 45.04232 | 33.96994 | 621 ft | 126 kts | 196° |
| 2026-04-21 19:48 | 45.03305 | 33.96663 | 785 ft | 152 kts | 193° |
| 2026-04-21 19:48 | 45.02583 | 33.96431 | 2140 ft | 52 kts | 279° |
| 2026-04-21 19:48 | 45.02744 | 33.96708 | 767 ft | 184 kts | 39° |
| 2026-04-21 19:49 | 45.04044 | 33.97103 | 619 ft | 225 kts | 12° |
| 2026-04-21 19:49 | 45.05750 | 33.97529 | 623 ft | 262 kts | 343° |
| 2026-04-21 19:49 | 45.05130 | 33.97165 | 663 ft | 251 kts | 162° |
| 2026-04-21 19:49 | 45.04099 | 33.96966 | 2616 ft | 125 kts | 21° |
| 2026-04-21 19:50 | 45.03897 | 33.96813 | 826 ft | 216 kts | 279° |
| 2026-04-21 19:50 | 45.05199 | 33.96388 | 825 ft | 240 kts | 20° |
| 2026-04-21 19:50 | 45.06627 | 33.97233 | 1597 ft | 181 kts | 63° |
| 2026-04-21 19:50 | 45.06610 | 33.97782 | 2635 ft | 146 kts | 154° |
| 2026-04-21 19:51 | 45.05192 | 33.97413 | 635 ft | 280 kts | 194° |
| 2026-04-21 19:51 | 45.03222 | 33.96793 | 681 ft | 301 kts | 180° |
| 2026-04-21 19:51 | 45.02774 | 33.98544 | 2216 ft | 233 kts | 72° |
| 2026-04-21 19:51 | 45.02472 | 33.98827 | 2378 ft | 192 kts | 324° |
| 2026-04-21 19:52 | 45.03481 | 33.96913 | 686 ft | 295 kts | 326° |
| 2026-04-21 19:52 | 45.05387 | 33.97374 | 1109 ft | 282 kts | 8° |
| 2026-04-21 19:52 | 45.05420 | 33.97534 | 816 ft | 223 kts | 355° |
| 2026-04-21 19:52 | 45.05225 | 33.97701 | 706 ft | 198 kts | 304° |
| 2026-04-21 19:53 | 45.05570 | 33.98570 | 805 ft | 183 kts | 53° |
| 2026-04-21 19:53 | 45.05272 | 33.98864 | 700 ft | 177 kts | 282° |
| 2026-04-21 19:53 | 45.05805 | 33.99077 | 743 ft | 182 kts | 160° |
| 2026-04-21 19:53 | 45.05892 | 33.98362 | 753 ft | 183 kts | 50° |
| 2026-04-21 19:54 | 45.05290 | 33.98680 | 701 ft | 195 kts | 271° |
| 2026-04-21 19:54 | 45.06410 | 33.97822 | 886 ft | 219 kts | 352° |
| 2026-04-21 19:54 | 45.08009 | 33.97355 | 982 ft | 260 kts | 346° |
| 2026-04-21 19:54 | 45.09591 | 33.97533 | 1187 ft | 266 kts | 90° |
| 2026-04-21 19:55 | 45.07917 | 33.98388 | 739 ft | 290 kts | 181° |
| 2026-04-21 19:55 | 45.05934 | 33.97852 | 1762 ft | 266 kts | 193° |
| 2026-04-21 19:55 | 45.06113 | 33.97397 | 4493 ft | 120 kts | 336° |
| 2026-04-21 19:55 | 45.05638 | 33.97832 | 1089 ft | 303 kts | 196° |
| 2026-04-21 19:56 | 45.03489 | 33.96864 | 600 ft | 333 kts | 197° |
| 2026-04-21 19:56 | 45.02385 | 33.97900 | 2587 ft | 234 kts | 18° |
| 2026-04-21 19:56 | 45.03698 | 33.96941 | 854 ft | 277 kts | 24° |
| 2026-04-21 19:56 | 45.04778 | 33.97320 | 3013 ft | 157 kts | 218° |
| 2026-04-21 19:57 | 45.03408 | 33.96846 | 634 ft | 292 kts | 182° |
| 2026-04-21 19:57 | 45.03549 | 33.97429 | 1895 ft | 220 kts | 281° |
| 2026-04-21 19:57 | 45.03275 | 33.97109 | 3238 ft | 88 kts | 35° |
| 2026-04-21 19:57 | 45.04232 | 33.97695 | 2148 ft | 217 kts | 18° |
| 2026-04-21 19:58 | 45.05957 | 33.98111 | 1322 ft | 284 kts | 12° |
| 2026-04-21 19:58 | 45.06557 | 33.97697 | 868 ft | 261 kts | 197° |
| 2026-04-21 19:58 | 45.04679 | 33.97282 | 1025 ft | 285 kts | 192° |
| 2026-04-21 19:58 | 45.02630 | 33.96725 | 846 ft | 313 kts | 174° |
| 2026-04-21 19:59 | 45.02401 | 33.98499 | 1608 ft | 197 kts | 216° |
| 2026-04-21 19:59 | 45.02758 | 33.96885 | 1154 ft | 186 kts | 290° |
| 2026-04-21 19:59 | 45.03385 | 33.96602 | 883 ft | 174 kts | 25° |
| 2026-04-21 20:00 | 45.04026 | 33.97002 | 761 ft | 163 kts | 22° |
| 2026-04-21 20:00 | 45.05048 | 33.97668 | 781 ft | 176 kts | 27° |
| 2026-04-21 20:00 | 45.06231 | 33.98468 | 1007 ft | 182 kts | 27° |
| 2026-04-21 20:01 | 45.06454 | 33.98614 | 995 ft | 177 kts | 24° |
| 2026-04-21 20:01 | 45.06578 | 33.98691 | 996 ft | 173 kts | 22° |
| 2026-04-21 20:01 | 45.06994 | 33.98882 | 1056 ft | 159 kts | 19° |
| 2026-04-21 20:01 | 45.07711 | 33.98860 | 989 ft | 140 kts | 309° |
| 2026-04-21 20:02 | 45.07312 | 33.98090 | 723 ft | 105 kts | 204° |
| 2026-04-21 20:02 | 45.06668 | 33.97821 | 583 ft | 89 kts | 193° |
| 2026-04-21 20:02 | 45.06154 | 33.97646 | 578 ft | 63 kts | 194° |
| 2026-04-21 20:02 | 45.05841 | 33.97528 | 579 ft | 16 kts | 200° |
| 2026-04-21 20:03 | 45.05793 | 33.97505 | 578 ft | 2 kts | 196° |
| 2026-04-21 20:03 | 45.05792 | 33.97504 | 578 ft | 0 kts | 200° |
| 2026-04-21 20:03 | 45.05790 | 33.97503 | 578 ft | 0 kts | 200° |
| 2026-04-21 20:03 | 45.05771 | 33.97496 | 578 ft | 5 kts | 187° |
| 2026-04-21 20:04 | 45.05714 | 33.97485 | 578 ft | 10 kts | 192° |
| 2026-04-21 20:04 | 45.05646 | 33.97471 | 579 ft | 4 kts | 189° |
| 2026-04-21 20:04 | 45.05619 | 33.97466 | 579 ft | 2 kts | 182° |
| 2026-04-21 20:04 | 45.05608 | 33.97464 | 579 ft | 0 kts | 189° |
| 2026-04-21 20:05 | 45.05589 | 33.97457 | 580 ft | 11 kts | 199° |
| 2026-04-21 20:05 | 45.05425 | 33.97399 | 580 ft | 27 kts | 193° |
| 2026-04-21 20:05 | 45.05238 | 33.97336 | 582 ft | 26 kts | 193° |
| 2026-04-21 20:05 | 45.05036 | 33.97275 | 584 ft | 32 kts | 192° |
| 2026-04-21 20:06 | 45.04804 | 33.97195 | 585 ft | 36 kts | 192° |
| 2026-04-21 20:06 | 45.04547 | 33.97113 | 585 ft | 38 kts | 192° |
| 2026-04-21 20:06 | 45.04283 | 33.97033 | 586 ft | 35 kts | 193° |
| 2026-04-21 20:06 | 45.04079 | 33.96962 | 589 ft | 23 kts | 194° |
| 2026-04-21 20:07 | 45.03944 | 33.96925 | 591 ft | 16 kts | 193° |
| 2026-04-21 20:07 | 45.03838 | 33.96907 | 593 ft | 14 kts | 178° |
| 2026-04-21 20:07 | 45.03731 | 33.96899 | 593 ft | 15 kts | 189° |
| 2026-04-21 20:07 | 45.03638 | 33.96884 | 595 ft | 11 kts | 186° |
| 2026-04-21 20:08 | 45.03613 | 33.96874 | 594 ft | 1 kts | 89° |
| 2026-04-21 20:08 | 45.03598 | 33.96878 | 594 ft | 5 kts | 168° |
| 2026-04-21 20:08 | 45.03548 | 33.96890 | 593 ft | 9 kts | 170° |
| 2026-04-21 20:08 | 45.03502 | 33.96910 | 593 ft | 3 kts | 162° |
| 2026-04-21 20:09 | 45.03485 | 33.96917 | 593 ft | 0 kts | 155° |
| 2026-04-21 20:09 | 45.03484 | 33.96918 | 593 ft | 0 kts | 160° |